Time;durP1;ratioP1;P1;durP2;ratioP2;P2;SDS_P1;SDS_P2;PMS_P1;PMS_P2;Temp;Humidity;BMP_temperature;BMP_pressure;BME280_temperature;BME280_humidity;BME280_pressure;Samples;Min_cycle;Max_cycle;Signal;HPM_P1;HPM_P2
2022/08/15 00:01:22;;;;;;;10.05;4.70;;;;;;;19.98;96.64;100308.65;1794349;79;25791;-52
2022/08/15 00:04:09;;;;;;;8.60;5.58;;;;;;;20.04;97.92;100298.78;1794537;79;25957;-53
2022/08/15 00:06:41;;;;;;;7.55;5.47;;;;;;;20.02;97.20;100285.32;1772349;79;25909;-54
2022/08/15 00:09:18;;;;;;;12.00;6.00;;;;;;;20.04;96.96;100274.20;1772799;79;25785;-53
2022/08/15 00:11:51;;;;;;;8.18;4.92;;;;;;;20.09;97.86;100270.30;1773255;80;27581;-54
2022/08/15 00:14:26;;;;;;;8.33;4.83;;;;;;;20.10;97.82;100266.53;1772843;80;25757;-54
2022/08/15 00:16:54;;;;;;;10.20;5.42;;;;;;;20.08;97.03;100248.14;1772610;80;25692;-53
2022/08/15 00:19:25;;;;;;;10.78;5.70;;;;;;;20.09;97.51;100249.83;1772953;80;26517;-53
2022/08/15 00:21:59;;;;;;;14.60;5.78;;;;;;;20.08;97.63;100240.78;1772663;80;25907;-54
2022/08/15 00:24:28;;;;;;;;;;;;;;;20.04;97.70;100245.55;1769629;80;28494;-52
2022/08/15 00:26:58;;;;;;;11.38;5.95;;;;;;;20.01;97.79;100241.32;1770034;80;25598;-54
2022/08/15 00:29:29;;;;;;;13.88;6.50;;;;;;;19.96;97.54;100237.03;1770118;81;25792;-52
2022/08/15 00:31:57;;;;;;;11.15;5.75;;;;;;;19.94;97.29;100235.89;1770244;81;26544;-54
2022/08/15 00:34:24;;;;;;;10.38;5.97;;;;;;;19.93;97.10;100236.94;1770237;80;25753;-54
2022/08/15 00:36:51;;;;;;;14.87;6.50;;;;;;;19.88;96.33;100236.72;1770343;81;27429;-55
2022/08/15 00:39:22;;;;;;;14.00;6.60;;;;;;;19.85;96.18;100237.16;1754807;80;25780;-53
2022/08/15 00:41:51;;;;;;;8.20;5.83;;;;;;;19.77;96.25;100240.89;1753567;81;25713;-53
2022/08/15 00:44:34;;;;;;;12.93;6.50;;;;;;;19.74;96.01;100241.84;1753121;80;25846;-53
2022/08/15 00:47:05;;;;;;;11.22;5.85;;;;;;;19.73;96.07;100249.71;1753444;81;25762;-53
2022/08/15 00:49:35;;;;;;;13.48;6.00;;;;;;;19.76;96.76;100252.03;1753425;81;27460;-51
2022/08/15 00:52:16;;;;;;;17.57;6.08;;;;;;;19.77;96.32;100252.31;1753149;81;25504;-54
2022/08/15 00:55:07;;;;;;;10.80;6.42;;;;;;;19.80;96.57;100254.64;1737323;81;25750;-54
2022/08/15 00:57:38;;;;;;;9.88;6.65;;;;;;;19.80;95.93;100260.09;1727974;82;25974;-52
2022/08/15 01:00:15;;;;;;;12.37;5.92;;;;;;;19.81;95.79;100257.15;1729579;82;25842;-53
2022/08/15 01:02:42;;;;;;;17.92;6.20;;;;;;;19.85;95.73;100259.81;1729451;81;28216;-54
2022/08/15 01:05:13;;;;;;;11.50;6.65;;;;;;;19.89;95.57;100255.31;1729523;82;25496;-54
2022/08/15 01:07:41;;;;;;;15.78;6.12;;;;;;;19.90;95.12;100254.27;1729831;82;25591;-52
2022/08/15 01:10:10;;;;;;;15.45;7.17;;;;;;;19.92;95.25;100248.05;1730176;82;26678;-54
2022/08/15 01:12:39;;;;;;;9.93;6.28;;;;;;;19.94;95.35;100255.00;1729987;82;25749;-54
2022/08/15 01:15:14;;;;;;;13.43;6.20;;;;;;;19.95;95.09;100254.46;1729850;82;27452;-54
2022/08/15 01:17:42;;;;;;;10.85;6.10;;;;;;;19.99;95.25;100262.02;1729708;82;26156;-53
2022/08/15 01:20:23;;;;;;;12.73;5.87;;;;;;;19.97;94.67;100263.29;1730157;82;25523;-53
2022/08/15 01:23:13;;;;;;;14.38;5.97;;;;;;;20.00;94.88;100265.58;1728832;81;26732;-54
2022/08/15 01:25:49;;;;;;;14.63;6.78;;;;;;;20.01;94.53;100270.84;1705562;83;25520;-55
2022/08/15 01:28:23;;;;;;;14.13;6.53;;;;;;;19.99;94.18;100267.48;1705353;84;27683;-54
2022/08/15 01:30:53;;;;;;;;;;;;;;;19.93;93.79;100265.60;1737731;81;25809;-55
2022/08/15 01:33:22;;;;;;;10.75;5.87;;;;;;;19.94;94.03;100263.70;1748272;81;26555;-53
2022/08/15 01:35:54;;;;;;;10.43;6.03;;;;;;;19.94;93.83;100260.97;1734210;81;25745;-53
2022/08/15 01:38:33;;;;;;;14.07;5.65;;;;;;;19.96;94.02;100253.41;1745134;81;25865;-55
2022/08/15 01:41:20;;;;;;;15.32;6.70;;;;;;;20.03;94.18;100257.52;1749595;81;27505;-54
2022/08/15 01:43:58;;;;;;;12.68;6.05;;;;;;;20.06;94.09;100258.44;1753173;81;25745;-54
2022/08/15 01:46:29;;;;;;;13.60;6.65;;;;;;;20.12;94.19;100260.34;1747556;81;25492;-54
2022/08/15 01:49:08;;;;;;;18.85;6.65;;;;;;;20.18;94.38;100252.11;1752197;81;25794;-54
2022/08/15 01:51:34;;;;;;;13.40;5.80;;;;;;;20.21;93.59;100252.75;1753072;81;25701;-54
2022/08/15 01:54:09;;;;;;;14.00;6.75;;;;;;;20.23;93.86;100247.92;1744217;81;27461;-54
2022/08/15 01:56:41;;;;;;;13.15;6.45;;;;;;;20.24;93.24;100244.97;1774289;79;25753;-53
2022/08/15 01:59:19;;;;;;;18.60;7.00;;;;;;;20.18;92.66;100248.55;1789005;79;25717;-55
2022/08/15 02:01:54;;;;;;;9.00;6.05;;;;;;;20.10;92.09;100250.14;1789071;79;25806;-54
2022/08/15 02:04:30;;;;;;;14.58;6.97;;;;;;;20.03;92.24;100255.61;1789232;78;25891;-55
2022/08/15 02:07:01;;;;;;;11.93;7.03;;;;;;;19.99;92.40;100255.19;1788465;80;27386;-55
2022/08/15 02:09:30;;;;;;;15.70;7.20;;;;;;;19.96;92.40;100258.33;1789315;80;26138;-54
2022/08/15 02:12:02;;;;;;;14.78;6.00;;;;;;;19.96;92.44;100253.41;1789009;78;25794;-54
2022/08/15 02:14:32;;;;;;;15.38;6.35;;;;;;;19.93;92.44;100256.05;1789362;78;25980;-54
2022/08/15 02:16:59;;;;;;;13.90;6.70;;;;;;;19.94;92.77;100255.51;1788847;78;25767;-54
2022/08/15 02:19:28;;;;;;;17.55;7.17;;;;;;;19.95;93.14;100254.46;1789289;79;27591;-54
2022/08/15 02:21:55;;;;;;;11.12;6.55;;;;;;;19.98;93.25;100257.60;1788798;80;25704;-51
2022/08/15 02:24:24;;;;;;;13.83;6.42;;;;;;;20.00;93.00;100261.48;1755508;79;25712;-54
2022/08/15 02:26:54;;;;;;;17.20;7.10;;;;;;;19.96;92.64;100254.78;1767779;81;25780;-54
2022/08/15 02:29:25;;;;;;;11.80;5.92;;;;;;;19.93;92.49;100253.83;1807390;78;25835;-55
2022/08/15 02:31:56;;;;;;;15.20;6.65;;;;;;;19.87;92.70;100248.67;1773309;80;27524;-55
2022/08/15 02:34:25;;;;;;;12.73;6.03;;;;;;;19.83;92.83;100243.31;1758123;80;25762;-54
2022/08/15 02:36:52;;;;;;;12.05;6.55;;;;;;;19.80;92.81;100236.90;1815219;79;25719;-54
2022/08/15 02:39:21;;;;;;;14.30;6.87;;;;;;;19.76;93.42;100242.48;1809576;78;25966;-54
2022/08/15 02:41:51;;;;;;;16.87;7.30;;;;;;;19.75;93.04;100240.80;1768242;81;25751;-55
2022/08/15 02:44:21;;;;;;;14.73;7.10;;;;;;;19.75;93.32;100235.34;1767806;80;27548;-55
2022/08/15 02:46:52;;;;;;;15.18;6.92;;;;;;;19.73;93.49;100234.70;1783765;79;25932;-54
2022/08/15 02:49:22;;;;;;;14.07;7.05;;;;;;;19.74;93.72;100244.03;1791643;78;25694;-54
2022/08/15 02:51:50;;;;;;;18.10;7.00;;;;;;;19.75;93.34;100238.06;1791502;78;26659;-54
2022/08/15 02:54:22;;;;;;;15.72;7.22;;;;;;;19.73;93.22;100234.16;1779382;79;25656;-55
2022/08/15 02:56:49;;;;;;;16.85;7.62;;;;;;;19.73;93.06;100240.16;1767479;81;27493;-53
2022/08/15 02:59:18;;;;;;;12.90;6.50;;;;;;;19.71;93.29;100243.11;1767800;81;26530;-54
2022/08/15 03:01:45;;;;;;;13.45;6.30;;;;;;;19.70;93.32;100239.52;1768011;80;25526;-51
2022/08/15 03:04:19;;;;;;;17.10;6.55;;;;;;;19.72;94.07;100225.69;1767786;80;25791;-54
2022/08/15 03:06:47;;;;;;;18.23;8.18;;;;;;;19.71;93.62;100228.10;1768073;80;25487;-54
2022/08/15 03:09:15;;;;;;;15.30;6.95;;;;;;;19.67;93.52;100221.37;1767829;81;27386;-54
2022/08/15 03:11:55;;;;;;;11.55;6.67;;;;;;;19.62;94.05;100211.62;1767213;80;25846;-54
2022/08/15 03:14:23;;;;;;;11.35;6.67;;;;;;;19.55;93.96;100215.17;1768106;80;25754;-52
2022/08/15 03:16:50;;;;;;;16.62;7.92;;;;;;;19.52;94.04;100212.02;1767710;81;26632;-54
2022/08/15 03:19:27;;;;;;;13.65;7.50;;;;;;;19.43;94.54;100211.41;1767522;80;25942;-55
2022/08/15 03:21:54;;;;;;;10.50;6.17;;;;;;;19.36;94.90;100207.83;1767327;81;27501;-54
2022/08/15 03:24:22;;;;;;;11.28;7.80;;;;;;;19.30;95.66;100219.55;1761283;81;25523;-54
2022/08/15 03:26:50;;;;;;;11.60;6.90;;;;;;;19.25;95.65;100220.17;1806443;77;25703;-55
2022/08/15 03:29:20;;;;;;;14.10;7.83;;;;;;;19.21;95.92;100225.73;1806725;78;25793;-54
2022/08/15 03:31:51;;;;;;;16.40;7.08;;;;;;;19.20;96.28;100229.51;1806721;79;25676;-53
2022/08/15 03:34:23;;;;;;;11.65;7.53;;;;;;;19.22;96.29;100227.42;1806235;78;28376;-54
2022/08/15 03:36:50;;;;;;;15.40;7.42;;;;;;;19.24;96.21;100228.89;1806079;79;26587;-53
2022/08/15 03:39:18;;;;;;;14.38;7.75;;;;;;;19.30;96.41;100240.86;1809085;78;25798;-54
2022/08/15 03:41:45;;;;;;;16.62;8.25;;;;;;;19.36;96.31;100239.20;1827913;78;25770;-53
2022/08/15 03:44:15;;;;;;;15.05;7.47;;;;;;;19.36;95.97;100246.84;1812304;78;25789;-54
2022/08/15 03:46:43;;;;;;;15.80;7.47;;;;;;;19.37;95.85;100248.52;1783414;78;28356;-53
2022/08/15 03:49:13;;;;;;;11.75;7.35;;;;;;;19.41;95.83;100253.58;1766991;81;25984;-54
2022/08/15 03:51:40;;;;;;;13.55;6.75;;;;;;;19.45;95.61;100254.83;1767069;80;25697;-54
2022/08/15 03:54:10;;;;;;;15.25;7.10;;;;;;;19.47;95.43;100254.92;1787346;79;25769;-54
2022/08/15 03:56:38;;;;;;;20.48;7.22;;;;;;;19.48;95.51;100261.23;1773387;80;25814;-54
2022/08/15 03:59:07;;;;;;;10.75;7.12;;;;;;;19.47;95.09;100258.19;1772712;80;26908;-52
2022/08/15 04:01:37;;;;;;;12.65;7.60;;;;;;;19.48;95.21;100262.60;1773427;80;25958;-54
2022/08/15 04:04:05;;;;;;;11.43;7.25;;;;;;;19.46;95.18;100265.52;1773159;79;25842;-54
2022/08/15 04:06:34;;;;;;;13.75;6.62;;;;;;;19.46;95.15;100266.05;1772593;80;25804;-54
2022/08/15 04:09:03;;;;;;;14.58;7.33;;;;;;;19.43;95.37;100267.82;1773134;80;25729;-54
2022/08/15 04:11:30;;;;;;;13.65;6.90;;;;;;;19.43;95.23;100270.55;1773451;80;27678;-54
2022/08/15 04:13:59;;;;;;;14.87;7.33;;;;;;;19.48;95.16;100280.33;1772953;80;25725;-53
2022/08/15 04:16:27;;;;;;;11.00;7.17;;;;;;;19.49;95.01;100279.29;1772863;80;25755;-53
2022/08/15 04:18:54;;;;;;;13.18;7.17;;;;;;;19.53;95.06;100275.08;1772925;80;25818;-53
2022/08/15 04:21:22;;;;;;;15.72;7.67;;;;;;;19.58;94.92;100275.83;1773170;80;26110;-55
2022/08/15 04:23:50;;;;;;;12.75;7.40;;;;;;;19.62;94.78;100271.64;1769757;80;28952;-55
2022/08/15 04:26:17;;;;;;;13.83;7.70;;;;;;;19.66;94.44;100271.02;1770071;80;25501;-55
2022/08/15 04:28:46;;;;;;;13.95;7.42;;;;;;;19.71;94.18;100268.49;1770396;81;25799;-55
2022/08/15 04:31:17;;;;;;;17.00;8.00;;;;;;;19.74;94.06;100263.13;1770073;81;25788;-55
2022/08/15 04:33:47;;;;;;;14.20;8.68;;;;;;;19.75;93.87;100250.34;1770136;81;25800;-55
2022/08/15 04:36:18;;;;;;;11.88;8.00;;;;;;;19.78;93.74;100240.36;1770383;81;28457;-54
2022/08/15 04:38:47;;;;;;;14.18;7.10;;;;;;;19.76;93.65;100240.58;1768611;81;25985;-55
2022/08/15 04:41:15;;;;;;;14.63;7.85;;;;;;;19.76;93.63;100222.84;1753630;81;25672;-50
2022/08/15 04:43:44;;;;;;;14.35;7.40;;;;;;;19.77;93.50;100216.84;1753266;81;25792;-55
2022/08/15 04:46:13;;;;;;;8.80;7.53;;;;;;;19.78;93.63;100208.46;1747028;81;25723;-54
2022/08/15 04:48:42;;;;;;;15.68;7.87;;;;;;;19.85;93.80;100207.13;1739073;82;27538;-55
2022/08/15 04:51:09;;;;;;;12.37;7.00;;;;;;;19.89;93.64;100204.28;1738828;82;25529;-55
2022/08/15 04:53:39;;;;;;;16.02;8.23;;;;;;;19.90;93.41;100200.50;1742094;81;25723;-53
2022/08/15 04:56:07;;;;;;;16.67;8.08;;;;;;;19.88;93.40;100199.87;1753264;81;25777;-52
2022/08/15 04:58:36;;;;;;;10.43;7.20;;;;;;;19.88;93.56;100200.41;1753078;81;25749;-54
2022/08/15 05:01:08;;;;;;;12.55;7.50;;;;;;;19.86;93.51;100190.53;1753378;81;28361;-53
2022/08/15 05:03:38;;;;;;;15.32;7.97;;;;;;;19.84;93.58;100193.14;1752389;81;25716;-53
2022/08/15 05:06:09;;;;;;;12.00;7.53;;;;;;;19.86;93.52;100201.45;1732115;81;25659;-55
2022/08/15 05:08:38;;;;;;;13.78;7.53;;;;;;;19.86;93.51;100207.42;1753052;81;25922;-54
2022/08/15 05:11:18;;;;;;;15.95;8.95;;;;;;;19.88;93.41;100213.52;1752463;81;25704;-53
2022/08/15 05:13:46;;;;;;;14.43;7.90;;;;;;;19.90;93.26;100218.24;1752336;81;27478;-52
2022/08/15 05:16:18;;;;;;;12.70;7.47;;;;;;;19.91;93.15;100213.61;1752900;81;25674;-54
2022/08/15 05:18:45;;;;;;;14.47;7.90;;;;;;;19.90;93.13;100215.52;1753206;81;25751;-54
2022/08/15 05:21:12;;;;;;;18.75;8.53;;;;;;;19.87;93.13;100226.84;1753433;81;27155;-52
2022/08/15 05:23:43;;;;;;;16.77;8.43;;;;;;;19.90;93.01;100220.97;1755374;81;26006;-53
2022/08/15 05:26:14;;;;;;;14.60;8.00;;;;;;;19.90;93.01;100214.15;1761048;81;26883;-54
2022/08/15 05:28:41;;;;;;;12.93;8.33;;;;;;;19.90;93.15;100219.61;1758361;80;25701;-54
2022/08/15 05:31:13;;;;;;;10.88;7.92;;;;;;;19.95;93.08;100209.42;1750932;81;25701;-54
2022/08/15 05:33:45;;;;;;;14.63;8.30;;;;;;;20.04;93.03;100203.23;1806295;77;25868;-55
2022/08/15 05:36:14;;;;;;;15.30;7.92;;;;;;;20.08;92.88;100201.73;1806350;79;25819;-54
2022/08/15 05:38:48;;;;;;;12.80;7.45;;;;;;;20.15;92.76;100191.12;1769188;79;26670;-55
2022/08/15 05:41:44;;;;;;;14.43;8.13;;;;;;;20.28;92.58;100202.53;1806720;78;26083;-55
2022/08/15 05:44:37;;;;;;;17.50;8.83;;;;;;;20.40;92.02;100196.37;1806254;77;26157;-55
2022/08/15 05:47:31;;;;;;;16.20;8.15;;;;;;;20.53;91.58;100199.08;1804928;78;25745;-54
2022/08/15 05:50:34;;;;;;;14.07;8.80;;;;;;;20.62;90.59;100195.56;1803731;79;25703;-54
2022/08/15 05:53:22;;;;;;;;;;;;;;;20.72;90.23;100193.75;1807122;79;28378;-54
2022/08/15 05:56:12;;;;;;;13.43;8.15;;;;;;;20.78;88.78;100192.90;1804817;79;25702;-53
2022/08/15 05:58:54;;;;;;;20.12;8.33;;;;;;;20.88;89.12;100195.18;1805646;79;25727;-54
2022/08/15 06:01:41;;;;;;;15.30;8.13;;;;;;;20.95;88.28;100188.59;1809955;79;25782;-55
2022/08/15 06:04:44;;;;;;;21.97;8.80;;;;;;;21.05;88.12;100184.03;1809953;79;25981;-54
2022/08/15 06:07:14;;;;;;;21.25;7.95;;;;;;;21.15;88.00;100193.11;1809992;79;28424;-53
2022/08/15 06:09:52;;;;;;;11.48;8.18;;;;;;;21.18;87.03;100198.66;1814659;79;25698;-54
2022/08/15 06:12:38;;;;;;;15.20;8.28;;;;;;;21.15;86.58;100193.11;1809720;79;25711;-54
2022/08/15 06:15:24;;;;;;;11.53;7.87;;;;;;;21.17;86.66;100206.05;1809015;79;25916;-54
2022/08/15 06:18:03;;;;;;;15.88;8.13;;;;;;;21.23;86.59;100208.43;1809723;79;26150;-54
2022/08/15 06:21:09;;;;;;;14.40;8.00;;;;;;;21.25;86.69;100205.77;1810282;79;27671;-54
2022/08/15 06:24:03;;;;;;;16.05;8.35;;;;;;;21.29;86.60;100204.80;1809513;79;25733;-54
2022/08/15 06:26:49;;;;;;;18.07;8.65;;;;;;;21.35;86.20;100208.01;1748655;79;26462;-55
2022/08/15 06:29:48;;;;;;;13.45;8.43;;;;;;;21.45;86.14;100212.16;1807422;79;26809;-53
2022/08/15 06:32:36;;;;;;;15.40;7.75;;;;;;;21.50;85.56;100204.13;1807133;79;26107;-54
2022/08/15 06:35:17;;;;;;;15.90;8.10;;;;;;;21.57;85.54;100207.11;1807391;79;27471;-54
2022/08/15 06:37:50;;;;;;;17.25;8.28;;;;;;;21.67;85.26;100202.55;1798598;78;26484;-54
2022/08/15 06:40:42;;;;;;;14.00;8.50;;;;;;;21.69;84.31;100205.05;1807553;79;25699;-54
2022/08/15 06:43:13;;;;;;;17.20;8.38;;;;;;;21.68;84.09;100210.21;1807785;79;25835;-54
2022/08/15 06:45:48;;;;;;;14.75;8.05;;;;;;;21.69;84.07;100212.75;1741872;79;25589;-54
2022/08/15 06:48:23;;;;;;;25.90;9.37;;;;;;;21.70;84.01;100213.57;1767429;79;28425;-54
2022/08/15 06:50:55;;;;;;;20.10;8.53;;;;;;;21.78;84.42;100211.92;1766565;81;25841;-52
2022/08/15 06:53:27;;;;;;;13.43;8.98;;;;;;;21.90;84.09;100212.02;1771288;79;25755;-54
2022/08/15 06:56:11;;;;;;;12.05;8.63;;;;;;;21.98;83.68;100204.88;1800040;78;25820;-54
2022/08/15 06:58:49;;;;;;;17.48;8.75;;;;;;;22.08;83.77;100211.73;1792445;78;25946;-52
2022/08/15 07:01:37;;;;;;;15.65;8.33;;;;;;;22.24;83.31;100209.77;1799664;78;27562;-53
2022/08/15 07:04:35;;;;;;;18.20;8.58;;;;;;;22.37;82.49;100217.00;1800266;78;25747;-54
2022/08/15 07:07:25;;;;;;;18.40;8.40;;;;;;;22.56;82.63;100208.81;1799946;78;25803;-54
2022/08/15 07:10:07;;;;;;;18.50;8.78;;;;;;;22.69;81.21;100218.77;1800091;79;25803;-55
2022/08/15 07:12:42;;;;;;;16.07;8.95;;;;;;;22.70;80.02;100211.70;1800492;78;25696;-54
2022/08/15 07:15:27;;;;;;;16.57;8.48;;;;;;;22.73;79.96;100208.48;1799447;79;27616;-55
2022/08/15 07:18:03;;;;;;;21.60;8.68;;;;;;;22.90;80.42;100211.98;1809517;78;25763;-54
2022/08/15 07:20:31;;;;;;;18.30;7.90;;;;;;;22.97;79.04;100204.50;1815918;78;25692;-55
2022/08/15 07:22:59;;;;;;;20.50;9.35;;;;;;;22.94;78.12;100202.21;1818799;78;26648;-54
2022/08/15 07:25:32;;;;;;;20.25;8.95;;;;;;;22.93;78.55;100204.64;1817061;78;25754;-55
2022/08/15 07:28:04;;;;;;;12.47;8.35;;;;;;;22.95;78.11;100211.56;1767702;80;27494;-53
2022/08/15 07:30:55;;;;;;;10.43;8.73;;;;;;;22.98;78.01;100205.63;1763111;79;25999;-54
2022/08/15 07:33:48;;;;;;;12.43;8.45;;;;;;;23.06;78.06;100208.59;1749253;81;36120;-54
2022/08/15 07:36:34;;;;;;;16.37;8.33;;;;;;;23.24;78.70;100209.63;1805602;78;25787;-55
2022/08/15 07:39:20;;;;;;;21.33;8.68;;;;;;;23.43;77.88;100213.13;1811184;78;25869;-55
2022/08/15 07:41:47;;;;;;;12.98;8.88;;;;;;;23.65;78.11;100204.34;1802704;78;27456;-54
2022/08/15 07:44:25;;;;;;;18.05;7.87;;;;;;;23.82;77.09;100198.97;1772696;80;25736;-53
2022/08/15 07:47:07;;;;;;;19.07;8.95;;;;;;;23.84;76.31;100199.57;1787212;78;25680;-54
2022/08/15 07:49:35;;;;;;;17.17;8.48;;;;;;;24.04;76.66;100191.84;1800040;78;25777;-53
2022/08/15 07:52:16;;;;;;;15.30;7.95;;;;;;;24.23;76.18;100184.28;1777845;79;25680;-55
2022/08/15 07:54:48;;;;;;;15.13;8.80;;;;;;;24.40;75.76;100192.33;1799839;79;28368;-54
2022/08/15 07:57:35;;;;;;;15.13;8.28;;;;;;;24.50;74.24;100186.49;1799970;79;25752;-53
2022/08/15 08:00:21;;;;;;;21.35;8.58;;;;;;;24.62;74.62;100185.63;1799682;78;25714;-54
2022/08/15 08:03:04;;;;;;;13.22;8.35;;;;;;;24.66;74.22;100183.52;1799710;78;25799;-53
2022/08/15 08:05:47;;;;;;;17.05;8.70;;;;;;;24.76;74.21;100180.16;1800199;78;26267;-54
2022/08/15 08:08:20;;;;;;;13.95;7.97;;;;;;;24.77;73.22;100181.83;1799973;79;27482;-56
2022/08/15 08:10:58;;;;;;;19.65;8.55;;;;;;;24.66;72.58;100185.42;1800213;79;25786;-54
2022/08/15 08:13:42;;;;;;;16.75;8.50;;;;;;;24.65;73.55;100183.22;1800115;78;25692;-55
2022/08/15 08:16:28;;;;;;;19.50;8.90;;;;;;;24.59;72.32;100174.59;1787300;79;26673;-56
2022/08/15 08:19:24;;;;;;;20.00;9.00;;;;;;;24.62;73.49;100176.83;1800214;79;25797;-55
2022/08/15 08:22:11;;;;;;;12.82;8.50;;;;;;;24.73;73.72;100175.16;1799947;78;27451;-54
2022/08/15 08:25:01;;;;;;;14.95;8.83;;;;;;;24.91;73.88;100167.23;1806637;79;25920;-55
2022/08/15 08:28:10;;;;;;;23.57;9.20;;;;;;;24.97;71.73;100165.42;1811941;78;25774;-55
2022/08/15 08:30:50;;;;;;;14.70;8.80;;;;;;;24.95;71.91;100157.42;1773188;80;25753;-53
2022/08/15 08:34:01;;;;;;;19.00;9.83;;;;;;;25.04;72.15;100152.34;1811342;79;25766;-55
2022/08/15 08:36:55;;;;;;;19.25;8.50;;;;;;;25.05;71.94;100151.26;1772945;80;28385;-54
2022/08/15 08:39:39;;;;;;;21.90;8.53;;;;;;;25.08;72.11;100146.65;1773019;80;26183;-55
2022/08/15 08:42:35;;;;;;;21.25;8.95;;;;;;;25.15;71.98;100145.09;1771344;79;25775;-55
2022/08/15 08:45:27;;;;;;;17.82;8.15;;;;;;;25.20;71.10;100147.95;1772481;80;25992;-55
2022/08/15 08:48:31;;;;;;;13.20;7.67;;;;;;;25.22;71.05;100144.41;1742131;82;25729;-54
2022/08/15 08:51:24;;;;;;;17.27;8.88;;;;;;;25.31;70.89;100142.91;1732828;81;28443;-55
2022/08/15 08:54:06;;;;;;;19.07;8.80;;;;;;;25.44;70.69;100136.27;1758637;80;26508;-54
2022/08/15 08:56:46;;;;;;;16.52;9.38;;;;;;;25.64;70.08;100136.27;1799689;78;25695;-53
2022/08/15 08:59:40;;;;;;;20.08;10.78;;;;;;;25.87;69.31;100144.05;1799743;78;25692;-54
2022/08/15 09:02:27;;;;;;;33.13;12.78;;;;;;;26.09;68.91;100138.61;1796146;79;25481;-54
2022/08/15 09:05:19;;;;;;;21.85;10.65;;;;;;;26.11;68.15;100136.95;1799648;79;27565;-54
2022/08/15 09:07:51;;;;;;;15.60;8.83;;;;;;;26.07;67.03;100143.50;1799939;79;25778;-55
2022/08/15 09:10:26;;;;;;;25.57;11.08;;;;;;;26.15;67.09;100138.95;1800155;79;25711;-55
2022/08/15 09:15:58;;;;;;;21.02;8.45;;;;;;;26.25;68.02;100135.51;1782536;77;26614;-55
2022/08/15 09:18:37;;;;;;;41.90;12.18;;;;;;;26.19;66.23;100135.98;1742349;82;28085;-55
2022/08/15 09:21:05;;;;;;;18.70;10.55;;;;;;;26.07;67.14;100131.95;1779436;80;25957;-53
2022/08/15 09:23:36;;;;;;;23.90;9.58;;;;;;;26.05;66.70;100138.25;1785722;79;25773;-54
2022/08/15 09:26:24;;;;;;;20.40;9.75;;;;;;;25.98;67.16;100136.23;1811706;78;25816;-55
2022/08/15 09:29:06;;;;;;;21.73;8.15;;;;;;;26.11;67.14;100130.92;1810642;78;26163;-55
2022/08/15 09:31:37;;;;;;;24.12;8.78;;;;;;;26.32;66.76;100138.90;1811522;78;27399;-54
2022/08/15 09:34:30;;;;;;;23.52;9.13;;;;;;;26.54;66.17;100144.93;1811514;78;26210;-55
2022/08/15 09:37:14;;;;;;;16.10;8.78;;;;;;;26.61;65.35;100138.69;1807724;77;25427;-55
2022/08/15 09:40:35;;;;;;;19.42;10.13;;;;;;;26.68;65.73;100132.42;1807434;77;25828;-54
2022/08/15 09:43:13;;;;;;;16.17;8.28;;;;;;;26.85;65.77;100139.79;1811907;78;25718;-55
2022/08/15 09:45:54;;;;;;;20.45;8.70;;;;;;;26.98;63.94;100139.38;1798578;78;27487;-55
2022/08/15 09:48:44;;;;;;;13.32;8.85;;;;;;;27.10;63.86;100136.45;1766877;80;25928;-54
2022/08/15 09:51:43;;;;;;;20.10;9.05;;;;;;;27.17;64.22;100137.06;1767069;80;25792;-55
2022/08/15 09:54:23;;;;;;;23.12;8.65;;;;;;;27.39;63.61;100140.81;1788933;79;25858;-54
2022/08/15 09:57:11;;;;;;;18.07;8.50;;;;;;;27.49;62.26;100140.38;1810165;79;26017;-54
2022/08/15 09:59:39;;;;;;;13.80;7.72;;;;;;;27.53;62.78;100136.53;1809766;79;28424;-54
2022/08/15 10:02:23;;;;;;;18.95;8.25;;;;;;;27.72;63.19;100136.10;1809909;79;25694;-55
2022/08/15 10:04:59;;;;;;;22.58;13.20;;;;;;;27.86;62.08;100130.94;1809789;79;25761;-55
2022/08/15 10:07:55;;;;;;;14.15;8.45;;;;;;;28.03;62.45;100134.91;1810260;79;25939;-55
2022/08/15 10:10:36;;;;;;;12.35;7.92;;;;;;;28.14;60.71;100135.81;1810107;79;25763;-54
2022/08/15 10:13:40;;;;;;;12.10;8.23;;;;;;;28.39;60.13;100144.22;1809109;79;27732;-54
2022/08/15 10:16:41;;;;;;;17.67;8.05;;;;;;;28.65;60.48;100140.70;1809784;79;26159;-54
2022/08/15 10:19:31;;;;;;;20.75;8.18;;;;;;;28.89;58.56;100135.53;1810059;79;25730;-55
2022/08/15 10:22:03;;;;;;;18.95;6.97;;;;;;;29.14;57.59;100142.20;1810093;79;25904;-54
2022/08/15 10:24:36;;;;;;;13.22;7.58;;;;;;;29.33;54.91;100133.66;1807763;78;25721;-54
2022/08/15 10:27:22;;;;;;;17.02;7.67;;;;;;;29.25;55.62;100138.87;1812131;78;27418;-54
2022/08/15 10:29:55;;;;;;;10.72;7.20;;;;;;;29.38;55.51;100141.67;1811569;78;25623;-55
2022/08/15 10:32:35;;;;;;;14.83;8.15;;;;;;;29.45;55.16;100142.25;1813390;77;25774;-54
2022/08/15 10:35:16;;;;;;;15.55;7.42;;;;;;;29.30;54.82;100136.94;1811941;78;25837;-54
2022/08/15 10:38:00;;;;;;;13.68;7.50;;;;;;;29.44;54.62;100135.03;1811807;78;25681;-55
2022/08/15 10:40:30;;;;;;;;;;;;;;;29.42;53.62;100144.98;1814437;77;27441;-54
2022/08/15 10:43:20;;;;;;;19.15;7.10;;;;;;;29.26;54.22;100148.31;1811061;78;25630;-54
2022/08/15 10:46:25;;;;;;;13.60;8.03;;;;;;;29.25;53.49;100148.56;1808945;78;25717;-54
2022/08/15 10:49:03;;;;;;;22.60;9.00;;;;;;;29.00;54.43;100141.91;1800095;79;25809;-55
2022/08/15 10:52:01;;;;;;;16.20;8.13;;;;;;;28.88;54.86;100151.86;1799796;79;25685;-55
2022/08/15 10:54:58;;;;;;;14.30;8.15;;;;;;;28.75;55.57;100153.22;1800017;79;28191;-53
2022/08/15 10:57:30;;;;;;;18.12;7.65;;;;;;;28.75;55.24;100151.84;1800106;78;25691;-55
2022/08/15 10:59:57;;;;;;;;;;;;;;;28.77;55.50;100156.55;1802530;79;25739;-56
2022/08/15 11:02:38;;;;;;;20.65;7.85;;;;;;;28.87;55.62;100151.02;1800285;78;25722;-55
2022/08/15 11:05:14;;;;;;;24.12;9.20;;;;;;;29.03;55.17;100146.91;1799952;78;25709;-54
2022/08/15 11:07:51;;;;;;;13.13;7.65;;;;;;;29.34;54.95;100146.40;1799989;79;27632;-56
2022/08/15 11:10:22;;;;;;;16.02;7.87;;;;;;;29.77;53.16;100146.62;1799449;79;25754;-54
2022/08/15 11:12:54;;;;;;;22.70;7.65;;;;;;;30.04;52.55;100143.52;1800039;78;25435;-56
2022/08/15 11:15:29;;;;;;;18.50;8.00;;;;;;;30.18;52.53;100146.52;1799725;79;26416;-55
2022/08/15 11:18:08;;;;;;;14.15;7.65;;;;;;;30.26;50.65;100141.77;1800482;78;25679;-56
2022/08/15 11:20:45;;;;;;;14.20;7.30;;;;;;;30.25;51.32;100145.69;1800020;79;27519;-55
2022/08/15 11:23:29;;;;;;;18.55;7.50;;;;;;;30.31;51.42;100145.08;1800659;78;25750;-55
2022/08/15 11:25:58;;;;;;;11.90;7.17;;;;;;;30.29;50.83;100141.21;1772863;80;25471;-55
2022/08/15 11:28:25;;;;;;;16.50;6.85;;;;;;;30.21;50.89;100146.53;1811827;78;26675;-55
2022/08/15 11:31:07;;;;;;;15.43;6.67;;;;;;;30.22;50.28;100137.07;1772103;80;25468;-55
2022/08/15 11:33:44;;;;;;;24.85;7.40;;;;;;;30.10;50.29;100138.78;1772356;80;27427;-55
2022/08/15 11:36:26;;;;;;;23.38;7.53;;;;;;;30.06;51.43;100137.70;1811566;79;25735;-55
2022/08/15 11:39:01;;;;;;;25.88;7.90;;;;;;;30.12;51.27;100137.95;1812069;79;25778;-54
2022/08/15 11:41:34;;;;;;;12.10;6.75;;;;;;;30.09;50.52;100134.35;1772117;80;25817;-55
2022/08/15 11:44:01;;;;;;;16.77;7.12;;;;;;;29.98;51.28;100133.56;1808554;78;25740;-55
2022/08/15 11:46:29;;;;;;;14.73;6.95;;;;;;;29.94;51.88;100131.91;1792253;79;27451;-56
2022/08/15 11:49:01;;;;;;;15.23;7.25;;;;;;;29.97;50.56;100125.81;1807446;79;25640;-55
2022/08/15 11:51:36;;;;;;;19.50;7.33;;;;;;;29.87;51.58;100135.52;1806998;79;26200;-56
2022/08/15 11:54:14;;;;;;;18.50;7.00;;;;;;;29.90;51.58;100123.84;1807579;79;25778;-55
2022/08/15 11:56:55;;;;;;;12.98;6.95;;;;;;;29.93;51.56;100126.09;1807233;79;25707;-55
2022/08/15 11:59:39;;;;;;;17.98;6.53;;;;;;;29.84;50.84;100124.97;1807229;79;28388;-55
2022/08/15 12:02:20;;;;;;;16.65;6.95;;;;;;;29.84;51.55;100126.36;1793146;78;25532;-55
2022/08/15 12:04:49;;;;;;;10.63;6.37;;;;;;;29.86;51.23;100129.69;1807858;79;25520;-56
2022/08/15 12:07:29;;;;;;;15.78;6.70;;;;;;;29.83;51.51;100127.47;1805381;77;25717;-55